<?xml version='1.0' encoding='UTF-8'?>
<gpx xmlns="http://www.topografix.com/GPX/1/1" creator="www.balnam.be" version="1.1" xmlns:xsi="http://www.w3.org/2001/XMLSchema-instance" xsi:schemaLocation="http://www.topografix.com/GPX/1/1 http://www.topografix.com/GPX/1/1/gpx.xsd">
<trk>
<name>hbtgg10</name>
<cmt>d</cmt>
<desc>Guignies Chemin n°10 </desc>
<link href="https://chemins.be/guignies/chemin/10"/><trkseg>
<trkpt lat="50.543878" lon="3.369077"><time>2026-05-02T19:05:24Z</time></trkpt>
<trkpt lat="50.545183" lon="3.369204"><time>2026-05-02T19:15:24Z</time></trkpt>
<trkpt lat="50.545552" lon="3.369253"><time>2026-05-02T19:25:24Z</time></trkpt>
</trkseg>
</trk>
<trk>
<name>hbtgg12</name>
<cmt>v</cmt>
<desc>Guignies Chemin n°12 </desc>
<link href="https://chemins.be/guignies/chemin/12"/><trkseg>
<trkpt lat="50.545168" lon="3.361698"><time>2026-05-02T19:05:24Z</time></trkpt>
<trkpt lat="50.542277" lon="3.359091"><time>2026-05-02T19:15:24Z</time></trkpt>
<trkpt lat="50.542175" lon="3.358319"><time>2026-05-02T19:25:24Z</time></trkpt>
<trkpt lat="50.542804" lon="3.355301"><time>2026-05-02T19:35:24Z</time></trkpt>
</trkseg>
</trk>
<trk>
<name>hbtgg13</name>
<cmt>v</cmt>
<desc>Guignies Chemin n°13 </desc>
<link href="https://chemins.be/guignies/chemin/13"/><trkseg>
<trkpt lat="50.539604" lon="3.359533"><time>2026-05-02T19:05:24Z</time></trkpt>
<trkpt lat="50.540188" lon="3.358065"><time>2026-05-02T19:15:24Z</time></trkpt>
</trkseg>
</trk>
<trk>
<name>hbtgg14</name>
<cmt>q</cmt>
<desc>Guignies Sentier n°14 </desc>
<link href="https://chemins.be/guignies/sentier/14"/><trkseg>
<trkpt lat="50.533933" lon="3.365570"><time>2026-05-02T19:05:24Z</time></trkpt>
<trkpt lat="50.530696" lon="3.366106"><time>2026-05-02T19:15:24Z</time></trkpt>
<trkpt lat="50.529068" lon="3.369690"><time>2026-05-02T19:25:24Z</time></trkpt>
</trkseg>
</trk>
<trk>
<name>hbtgg15</name>
<cmt>r</cmt>
<desc>Guignies Sentier n°15 </desc>
<link href="https://chemins.be/guignies/sentier/15"/><trkseg>
<trkpt lat="50.533877" lon="3.361999"><time>2026-05-02T19:05:24Z</time></trkpt>
<trkpt lat="50.530367" lon="3.362957"><time>2026-05-02T19:15:24Z</time></trkpt>
</trkseg></trk>
<trk>
<name>hbtgg15</name>
<cmt>v</cmt>
<desc>Guignies Sentier n°15 </desc>
<link href="https://chemins.be/guignies/sentier/15"/><trkseg>
<trkpt lat="50.530367" lon="3.362957"><time>2026-05-02T19:15:24Z</time></trkpt>
<trkpt lat="50.528176" lon="3.363744"><time>2026-05-02T19:25:24Z</time></trkpt>
</trkseg>
</trk>
<trk>
<name>hbtgg16</name>
<cmt>q</cmt>
<desc>Guignies Chemin n°16 </desc>
<link href="https://chemins.be/guignies/chemin/16"/><trkseg>
<trkpt lat="50.529940" lon="3.348920"><time>2026-05-02T19:05:24Z</time></trkpt>
<trkpt lat="50.527161" lon="3.351778"><time>2026-05-02T19:15:24Z</time></trkpt>
<trkpt lat="50.523744" lon="3.355291"><time>2026-05-02T19:25:24Z</time></trkpt>
<trkpt lat="50.521463" lon="3.357557"><time>2026-05-02T19:35:24Z</time></trkpt>
</trkseg>
</trk>
<trk>
<name>hbtgg17</name>
<cmt>q</cmt>
<desc>Guignies Sentier n°17 </desc>
<link href="https://chemins.be/guignies/sentier/17"/><trkseg>
<trkpt lat="50.523710" lon="3.355309"><time>2026-05-02T19:05:24Z</time></trkpt>
<trkpt lat="50.525319" lon="3.358914"><time>2026-05-02T19:15:24Z</time></trkpt>
</trkseg>
</trk>
<trk>
<name>hbtgg19</name>
<cmt>v</cmt>
<desc>Guignies Chemin n°19 </desc>
<link href="https://chemins.be/guignies/chemin/19"/><trkseg>
<trkpt lat="50.539274" lon="3.365535"><time>2026-05-02T19:05:24Z</time></trkpt>
<trkpt lat="50.538704" lon="3.364535"><time>2026-05-02T19:15:24Z</time></trkpt>
</trkseg>
</trk>
<trk>
<name>hbtgg2</name>
<cmt>s</cmt>
<desc>Guignies Chemin n°2 </desc>
<link href="https://chemins.be/guignies/chemin/2"/><trkseg>
<trkpt lat="50.547416" lon="3.366814"><time>2026-05-02T19:05:24Z</time></trkpt>
<trkpt lat="50.547884" lon="3.366771"><time>2026-05-02T19:15:24Z</time></trkpt>
<trkpt lat="50.548470" lon="3.365138"><time>2026-05-02T19:25:24Z</time></trkpt>
</trkseg></trk>
<trk>
<name>hbtgg2</name>
<cmt>q</cmt>
<desc>Guignies Chemin n°2 </desc>
<link href="https://chemins.be/guignies/chemin/2"/><trkseg>
<trkpt lat="50.548470" lon="3.365138"><time>2026-05-02T19:25:24Z</time></trkpt>
<trkpt lat="50.548362" lon="3.364332"><time>2026-05-02T19:35:24Z</time></trkpt>
<trkpt lat="50.548198" lon="3.363674"><time>2026-05-02T19:45:24Z</time></trkpt>
</trkseg>
</trk>
<trk>
<name>hbtgg21</name>
<cmt>b</cmt>
<desc>Guignies Sentier n°21 Ruelle Dandance</desc>
<link href="https://chemins.be/guignies/sentier/21"/><trkseg>
<trkpt lat="50.533914" lon="3.361110"><time>2026-05-02T19:05:24Z</time></trkpt>
<trkpt lat="50.535649" lon="3.361505"><time>2026-05-02T19:15:24Z</time></trkpt>
</trkseg></trk>
<trk>
<name>hbtgg21</name>
<cmt>d</cmt>
<desc>Guignies Sentier n°21 Ruelle Dandance</desc>
<link href="https://chemins.be/guignies/sentier/21"/><trkseg>
<trkpt lat="50.535649" lon="3.361505"><time>2026-05-02T19:15:24Z</time></trkpt>
<trkpt lat="50.536936" lon="3.361591"><time>2026-05-02T19:25:24Z</time></trkpt>
<trkpt lat="50.538642" lon="3.361726"><time>2026-05-02T19:35:24Z</time></trkpt>
<trkpt lat="50.538768" lon="3.361228"><time>2026-05-02T19:45:24Z</time></trkpt>
<trkpt lat="50.540819" lon="3.361872"><time>2026-05-02T19:55:24Z</time></trkpt>
<trkpt lat="50.541239" lon="3.362662"><time>2026-05-02T20:05:24Z</time></trkpt>
<trkpt lat="50.541708" lon="3.363151"><time>2026-05-02T20:15:24Z</time></trkpt>
<trkpt lat="50.543517" lon="3.364448"><time>2026-05-02T20:25:24Z</time></trkpt>
</trkseg></trk>
<trk>
<name>hbtgg21</name>
<cmt>b</cmt>
<desc>Guignies Sentier n°21 Ruelle Dandance</desc>
<link href="https://chemins.be/guignies/sentier/21"/><trkseg>
<trkpt lat="50.543517" lon="3.364448"><time>2026-05-02T20:25:24Z</time></trkpt>
<trkpt lat="50.543642" lon="3.364556"><time>2026-05-02T20:35:24Z</time></trkpt>
</trkseg></trk>
<trk>
<name>hbtgg21</name>
<cmt>v</cmt>
<desc>Guignies Sentier n°21 Ruelle Dandance</desc>
<link href="https://chemins.be/guignies/sentier/21"/><trkseg>
<trkpt lat="50.543642" lon="3.364556"><time>2026-05-02T20:35:24Z</time></trkpt>
<trkpt lat="50.544010" lon="3.364953"><time>2026-05-02T20:45:24Z</time></trkpt>
</trkseg></trk>
<trk>
<name>hbtgg21</name>
<cmt>r</cmt>
<desc>Guignies Sentier n°21 Ruelle Dandance</desc>
<link href="https://chemins.be/guignies/sentier/21"/><trkseg>
<trkpt lat="50.544010" lon="3.364953"><time>2026-05-02T20:45:24Z</time></trkpt>
<trkpt lat="50.545016" lon="3.365948"><time>2026-05-02T20:55:24Z</time></trkpt>
<trkpt lat="50.545077" lon="3.365946"><time>2026-05-02T21:05:24Z</time></trkpt>
</trkseg></trk>
<trk>
<name>hbtgg21</name>
<cmt>v</cmt>
<desc>Guignies Sentier n°21 Ruelle Dandance</desc>
<link href="https://chemins.be/guignies/sentier/21"/><trkseg>
<trkpt lat="50.545077" lon="3.365946"><time>2026-05-02T21:05:24Z</time></trkpt>
<trkpt lat="50.545282" lon="3.366713"><time>2026-05-02T21:15:24Z</time></trkpt>
<trkpt lat="50.545367" lon="3.367116"><time>2026-05-02T21:25:24Z</time></trkpt>
<trkpt lat="50.545446" lon="3.367552"><time>2026-05-02T21:35:24Z</time></trkpt>
</trkseg></trk>
<trk>
<name>hbtgg21</name>
<cmt>b</cmt>
<desc>Guignies Sentier n°21 Ruelle Dandance</desc>
<link href="https://chemins.be/guignies/sentier/21"/><trkseg>
<trkpt lat="50.545446" lon="3.367552"><time>2026-05-02T21:35:24Z</time></trkpt>
<trkpt lat="50.545561" lon="3.369225"><time>2026-05-02T21:45:24Z</time></trkpt>
<trkpt lat="50.545192" lon="3.369232"><time>2026-05-02T21:55:24Z</time></trkpt>
<trkpt lat="50.545556" lon="3.371863"><time>2026-05-02T22:05:24Z</time></trkpt>
</trkseg>
</trk>
<trk>
<name>hbtgg22</name>
<cmt>q</cmt>
<desc>Guignies Sentier n°22 </desc>
<link href="https://chemins.be/guignies/sentier/22"/><trkseg>
<trkpt lat="50.547596" lon="3.367559"><time>2026-05-02T19:05:24Z</time></trkpt>
<trkpt lat="50.547841" lon="3.367737"><time>2026-05-02T19:15:24Z</time></trkpt>
<trkpt lat="50.548388" lon="3.368657"><time>2026-05-02T19:25:24Z</time></trkpt>
<trkpt lat="50.548824" lon="3.369113"><time>2026-05-02T19:35:24Z</time></trkpt>
<trkpt lat="50.549239" lon="3.368328"><time>2026-05-02T19:45:24Z</time></trkpt>
<trkpt lat="50.549859" lon="3.369275"><time>2026-05-02T19:55:24Z</time></trkpt>
<trkpt lat="50.550536" lon="3.371674"><time>2026-05-02T20:05:24Z</time></trkpt>
<trkpt lat="50.550688" lon="3.371600"><time>2026-05-02T20:15:24Z</time></trkpt>
<trkpt lat="50.551313" lon="3.373139"><time>2026-05-02T20:25:24Z</time></trkpt>
<trkpt lat="50.551198" lon="3.373367"><time>2026-05-02T20:35:24Z</time></trkpt>
<trkpt lat="50.553093" lon="3.375289"><time>2026-05-02T20:45:24Z</time></trkpt>
</trkseg>
</trk>
<trk>
<name>hbtgg23</name>
<cmt>q</cmt>
<desc>Guignies Sentier n°23 </desc>
<link href="https://chemins.be/guignies/sentier/23"/><trkseg>
<trkpt lat="50.548797" lon="3.369114"><time>2026-05-02T19:05:24Z</time></trkpt>
<trkpt lat="50.548576" lon="3.369584"><time>2026-05-02T19:15:24Z</time></trkpt>
<trkpt lat="50.548494" lon="3.369473"><time>2026-05-02T19:25:24Z</time></trkpt>
</trkseg></trk>
<trk>
<name>hbtgg23</name>
<cmt>s</cmt>
<desc>Guignies Sentier n°23 </desc>
<link href="https://chemins.be/guignies/sentier/23"/><trkseg>
<trkpt lat="50.548494" lon="3.369473"><time>2026-05-02T19:25:24Z</time></trkpt>
<trkpt lat="50.548219" lon="3.369944"><time>2026-05-02T19:35:24Z</time></trkpt>
<trkpt lat="50.547535" lon="3.369846"><time>2026-05-02T19:45:24Z</time></trkpt>
</trkseg></trk>
<trk>
<name>hbtgg23</name>
<cmt>b</cmt>
<desc>Guignies Sentier n°23 </desc>
<link href="https://chemins.be/guignies/sentier/23"/><trkseg>
<trkpt lat="50.547535" lon="3.369846"><time>2026-05-02T19:45:24Z</time></trkpt>
<trkpt lat="50.546904" lon="3.369662"><time>2026-05-02T19:55:24Z</time></trkpt>
<trkpt lat="50.546309" lon="3.369434"><time>2026-05-02T20:05:24Z</time></trkpt>
<trkpt lat="50.545571" lon="3.369309"><time>2026-05-02T20:15:24Z</time></trkpt>
</trkseg>
</trk>
<trk>
<name>hbtgg24</name>
<cmt>q</cmt>
<desc>Guignies Sentier n°24 </desc>
<link href="https://chemins.be/guignies/sentier/24"/><trkseg>
<trkpt lat="50.550098" lon="3.373009"><time>2026-05-02T19:05:24Z</time></trkpt>
<trkpt lat="50.551019" lon="3.372496"><time>2026-05-02T19:15:24Z</time></trkpt>
<trkpt lat="50.551047" lon="3.372538"><time>2026-05-02T19:25:24Z</time></trkpt>
<trkpt lat="50.552396" lon="3.370520"><time>2026-05-02T19:35:24Z</time></trkpt>
<trkpt lat="50.552910" lon="3.368575"><time>2026-05-02T19:45:24Z</time></trkpt>
<trkpt lat="50.553256" lon="3.367058"><time>2026-05-02T19:55:24Z</time></trkpt>
<trkpt lat="50.554146" lon="3.366969"><time>2026-05-02T20:05:24Z</time></trkpt>
</trkseg>
</trk>
<trk>
<name>hbtgg24bis</name>
<cmt>r</cmt>
<desc>Guignies Sentier n°24bis </desc>
<link href="https://chemins.be/guignies/sentier/24bis"/><trkseg>
<trkpt lat="50.550711" lon="3.374337"><time>2026-05-02T19:05:24Z</time></trkpt>
<trkpt lat="50.551180" lon="3.373368"><time>2026-05-02T19:15:24Z</time></trkpt>
</trkseg>
</trk>
<trk>
<name>hbtgg25</name>
<cmt>v</cmt>
<desc>Guignies Sentier n°25 </desc>
<link href="https://chemins.be/guignies/sentier/25"/><trkseg>
<trkpt lat="50.548260" lon="3.363617"><time>2026-05-02T19:05:24Z</time></trkpt>
<trkpt lat="50.547342" lon="3.363132"><time>2026-05-02T19:15:24Z</time></trkpt>
</trkseg></trk>
<trk>
<name>hbtgg25</name>
<cmt>d</cmt>
<desc>Guignies Sentier n°25 </desc>
<link href="https://chemins.be/guignies/sentier/25"/><trkseg>
<trkpt lat="50.547342" lon="3.363132"><time>2026-05-02T19:15:24Z</time></trkpt>
<trkpt lat="50.546569" lon="3.362724"><time>2026-05-02T19:25:24Z</time></trkpt>
<trkpt lat="50.545173" lon="3.361763"><time>2026-05-02T19:35:24Z</time></trkpt>
</trkseg></trk>
<trk>
<name>hbtgg25</name>
<cmt>v</cmt>
<desc>Guignies Sentier n°25 </desc>
<link href="https://chemins.be/guignies/sentier/25"/><trkseg>
<trkpt lat="50.545173" lon="3.361763"><time>2026-05-02T19:35:24Z</time></trkpt>
<trkpt lat="50.542315" lon="3.359033"><time>2026-05-02T19:45:24Z</time></trkpt>
</trkseg></trk>
<trk>
<name>hbtgg25</name>
<cmt>d</cmt>
<desc>Guignies Sentier n°25 </desc>
<link href="https://chemins.be/guignies/sentier/25"/><trkseg>
<trkpt lat="50.542315" lon="3.359033"><time>2026-05-02T19:45:24Z</time></trkpt>
<trkpt lat="50.541081" lon="3.358210"><time>2026-05-02T19:55:24Z</time></trkpt>
<trkpt lat="50.540835" lon="3.358700"><time>2026-05-02T20:05:24Z</time></trkpt>
<trkpt lat="50.540148" lon="3.358039"><time>2026-05-02T20:15:24Z</time></trkpt>
<trkpt lat="50.538037" lon="3.355884"><time>2026-05-02T20:25:24Z</time></trkpt>
</trkseg>
</trk>
<trk>
<name>hbtgg26</name>
<cmt>v</cmt>
<desc>Guignies Sentier n°26 </desc>
<link href="https://chemins.be/guignies/sentier/26"/><trkseg>
<trkpt lat="50.536935" lon="3.361575"><time>2026-05-02T19:05:24Z</time></trkpt>
<trkpt lat="50.536951" lon="3.359378"><time>2026-05-02T19:15:24Z</time></trkpt>
<trkpt lat="50.537303" lon="3.357162"><time>2026-05-02T19:25:24Z</time></trkpt>
</trkseg></trk>
<trk>
<name>hbtgg26</name>
<cmt>b</cmt>
<desc>Guignies Sentier n°26 </desc>
<link href="https://chemins.be/guignies/sentier/26"/><trkseg>
<trkpt lat="50.537303" lon="3.357162"><time>2026-05-02T19:25:24Z</time></trkpt>
<trkpt lat="50.538047" lon="3.355900"><time>2026-05-02T19:35:24Z</time></trkpt>
<trkpt lat="50.538631" lon="3.354872"><time>2026-05-02T19:45:24Z</time></trkpt>
<trkpt lat="50.539008" lon="3.353876"><time>2026-05-02T19:55:24Z</time></trkpt>
<trkpt lat="50.540426" lon="3.352863"><time>2026-05-02T20:05:24Z</time></trkpt>
<trkpt lat="50.540568" lon="3.352142"><time>2026-05-02T20:15:24Z</time></trkpt>
</trkseg>
</trk>
<trk>
<name>hbtgg27</name>
<cmt>v</cmt>
<desc>Guignies Sentier n°27 </desc>
<link href="https://chemins.be/guignies/sentier/27"/><trkseg>
<trkpt lat="50.540156" lon="3.358093"><time>2026-05-02T19:05:24Z</time></trkpt>
<trkpt lat="50.540725" lon="3.356606"><time>2026-05-02T19:15:24Z</time></trkpt>
</trkseg></trk>
<trk>
<name>hbtgg27</name>
<cmt>d</cmt>
<desc>Guignies Sentier n°27 </desc>
<link href="https://chemins.be/guignies/sentier/27"/><trkseg>
<trkpt lat="50.540725" lon="3.356606"><time>2026-05-02T19:15:24Z</time></trkpt>
<trkpt lat="50.540565" lon="3.356370"><time>2026-05-02T19:25:24Z</time></trkpt>
<trkpt lat="50.541431" lon="3.354810"><time>2026-05-02T19:35:24Z</time></trkpt>
<trkpt lat="50.541527" lon="3.354349"><time>2026-05-02T19:45:24Z</time></trkpt>
</trkseg>
</trk>
<trk>
<name>hbtgg28</name>
<cmt>d</cmt>
<desc>Guignies Sentier n°28 </desc>
<link href="https://chemins.be/guignies/sentier/28"/><trkseg>
<trkpt lat="50.542809" lon="3.355283"><time>2026-05-02T19:05:24Z</time></trkpt>
<trkpt lat="50.541520" lon="3.354435"><time>2026-05-02T19:15:24Z</time></trkpt>
<trkpt lat="50.541745" lon="3.353351"><time>2026-05-02T19:25:24Z</time></trkpt>
<trkpt lat="50.541380" lon="3.353121"><time>2026-05-02T19:35:24Z</time></trkpt>
</trkseg></trk>
<trk>
<name>hbtgg28</name>
<cmt>v</cmt>
<desc>Guignies Sentier n°28 </desc>
<link href="https://chemins.be/guignies/sentier/28"/><trkseg>
<trkpt lat="50.541380" lon="3.353121"><time>2026-05-02T19:35:24Z</time></trkpt>
<trkpt lat="50.541401" lon="3.352962"><time>2026-05-02T19:45:24Z</time></trkpt>
<trkpt lat="50.541472" lon="3.352407"><time>2026-05-02T19:55:24Z</time></trkpt>
</trkseg>
</trk>
<trk>
<name>hbtgg29</name>
<cmt>d</cmt>
<desc>Guignies Sentier n°29 </desc>
<link href="https://chemins.be/guignies/sentier/29"/><trkseg>
<trkpt lat="50.540387" lon="3.360249"><time>2026-05-02T19:05:24Z</time></trkpt>
<trkpt lat="50.540509" lon="3.359915"><time>2026-05-02T19:15:24Z</time></trkpt>
</trkseg></trk>
<trk>
<name>hbtgg29</name>
<cmt>b</cmt>
<desc>Guignies Sentier n°29 </desc>
<link href="https://chemins.be/guignies/sentier/29"/><trkseg>
<trkpt lat="50.540509" lon="3.359915"><time>2026-05-02T19:15:24Z</time></trkpt>
<trkpt lat="50.540889" lon="3.358906"><time>2026-05-02T19:25:24Z</time></trkpt>
<trkpt lat="50.540851" lon="3.358696"><time>2026-05-02T19:35:24Z</time></trkpt>
</trkseg>
</trk>
<trk>
<name>hbtgg30</name>
<cmt>d</cmt>
<desc>Guignies Sentier n°30 </desc>
<link href="https://chemins.be/guignies/sentier/30"/><trkseg>
<trkpt lat="50.541097" lon="3.361051"><time>2026-05-02T19:05:24Z</time></trkpt>
<trkpt lat="50.541724" lon="3.359807"><time>2026-05-02T19:15:24Z</time></trkpt>
</trkseg>
</trk>
<trk>
<name>hbtgg31</name>
<cmt>v</cmt>
<desc>Guignies Sentier n°31 </desc>
<link href="https://chemins.be/guignies/sentier/31"/><trkseg>
<trkpt lat="50.543873" lon="3.360554"><time>2026-05-02T19:05:24Z</time></trkpt>
<trkpt lat="50.544339" lon="3.359587"><time>2026-05-02T19:15:24Z</time></trkpt>
<trkpt lat="50.544829" lon="3.358571"><time>2026-05-02T19:25:24Z</time></trkpt>
<trkpt lat="50.545139" lon="3.357927"><time>2026-05-02T19:35:24Z</time></trkpt>
</trkseg></trk>
<trk>
<name>hbtgg31</name>
<cmt>d</cmt>
<desc>Guignies Sentier n°31 </desc>
<link href="https://chemins.be/guignies/sentier/31"/><trkseg>
<trkpt lat="50.545139" lon="3.357927"><time>2026-05-02T19:35:24Z</time></trkpt>
<trkpt lat="50.545488" lon="3.357850"><time>2026-05-02T19:45:24Z</time></trkpt>
<trkpt lat="50.545542" lon="3.357713"><time>2026-05-02T19:55:24Z</time></trkpt>
<trkpt lat="50.545652" lon="3.357773"><time>2026-05-02T20:05:24Z</time></trkpt>
<trkpt lat="50.546384" lon="3.356290"><time>2026-05-02T20:15:24Z</time></trkpt>
<trkpt lat="50.546890" lon="3.355266"><time>2026-05-02T20:25:24Z</time></trkpt>
</trkseg>
</trk>
<trk>
<name>hbtgg32</name>
<cmt>d</cmt>
<desc>Guignies Sentier n°32 </desc>
<link href="https://chemins.be/guignies/sentier/32"/><trkseg>
<trkpt lat="50.544721" lon="3.361365"><time>2026-05-02T19:05:24Z</time></trkpt>
<trkpt lat="50.545285" lon="3.359567"><time>2026-05-02T19:15:24Z</time></trkpt>
<trkpt lat="50.545231" lon="3.359438"><time>2026-05-02T19:25:24Z</time></trkpt>
<trkpt lat="50.545558" lon="3.358614"><time>2026-05-02T19:35:24Z</time></trkpt>
<trkpt lat="50.545654" lon="3.357765"><time>2026-05-02T19:45:24Z</time></trkpt>
</trkseg>
</trk>
<trk>
<name>hbtgg33</name>
<cmt>q</cmt>
<desc>Guignies Sentier n°33 </desc>
<link href="https://chemins.be/guignies/sentier/33"/><trkseg>
<trkpt lat="50.543297" lon="3.363031"><time>2026-05-02T19:05:24Z</time></trkpt>
<trkpt lat="50.543920" lon="3.362294"><time>2026-05-02T19:15:24Z</time></trkpt>
<trkpt lat="50.543720" lon="3.362022"><time>2026-05-02T19:25:24Z</time></trkpt>
<trkpt lat="50.544265" lon="3.360835"><time>2026-05-02T19:35:24Z</time></trkpt>
</trkseg>
</trk>
<trk>
<name>hbtgg35</name>
<cmt>q</cmt>
<desc>Guignies Sentier n°35 </desc>
<link href="https://chemins.be/guignies/sentier/35"/><trkseg>
<trkpt lat="50.547089" lon="3.367062"><time>2026-05-02T19:05:24Z</time></trkpt>
<trkpt lat="50.547055" lon="3.367330"><time>2026-05-02T19:15:24Z</time></trkpt>
<trkpt lat="50.546857" lon="3.367349"><time>2026-05-02T19:25:24Z</time></trkpt>
<trkpt lat="50.546453" lon="3.369460"><time>2026-05-02T19:35:24Z</time></trkpt>
</trkseg>
</trk>
<trk>
<name>hbtgg37</name>
<cmt>q</cmt>
<desc>Guignies Sentier n°37 </desc>
<link href="https://chemins.be/guignies/sentier/37"/><trkseg>
<trkpt lat="50.546927" lon="3.355185"><time>2026-05-02T19:05:24Z</time></trkpt>
<trkpt lat="50.546548" lon="3.354357"><time>2026-05-02T19:15:24Z</time></trkpt>
</trkseg>
</trk>
<trk>
<name>hbtgg38</name>
<cmt>q</cmt>
<desc>Guignies Sentier n°38 </desc>
<link href="https://chemins.be/guignies/sentier/38"/><trkseg>
<trkpt lat="50.536864" lon="3.350520"><time>2026-05-02T19:05:24Z</time></trkpt>
<trkpt lat="50.534706" lon="3.347894"><time>2026-05-02T19:15:24Z</time></trkpt>
<trkpt lat="50.533182" lon="3.346040"><time>2026-05-02T19:25:24Z</time></trkpt>
<trkpt lat="50.531097" lon="3.345284"><time>2026-05-02T19:35:24Z</time></trkpt>
<trkpt lat="50.530443" lon="3.345980"><time>2026-05-02T19:45:24Z</time></trkpt>
</trkseg>
</trk>
<trk>
<name>hbtgg39</name>
<cmt>v</cmt>
<desc>Guignies Sentier n°39 </desc>
<link href="https://chemins.be/guignies/sentier/39"/><trkseg>
<trkpt lat="50.541953" lon="3.361907"><time>2026-05-02T19:05:24Z</time></trkpt>
<trkpt lat="50.541708" lon="3.363203"><time>2026-05-02T19:15:24Z</time></trkpt>
<trkpt lat="50.541010" lon="3.366189"><time>2026-05-02T19:25:24Z</time></trkpt>
</trkseg>
</trk>
<trk>
<name>hbtgg4</name>
<cmt>v</cmt>
<desc>Guignies Chemin n°4 </desc>
<link href="https://chemins.be/guignies/chemin/4"/><trkseg>
<trkpt lat="50.533833" lon="3.361967"><time>2026-05-02T19:05:24Z</time></trkpt>
<trkpt lat="50.533705" lon="3.365254"><time>2026-05-02T19:15:24Z</time></trkpt>
<trkpt lat="50.533858" lon="3.365468"><time>2026-05-02T19:25:24Z</time></trkpt>
<trkpt lat="50.534291" lon="3.365668"><time>2026-05-02T19:35:24Z</time></trkpt>
</trkseg>
</trk>
<trk>
<name>hbtgg41</name>
<cmt>d</cmt>
<desc>Guignies Sentier n°41 </desc>
<link href="https://chemins.be/guignies/sentier/41"/><trkseg>
<trkpt lat="50.534924" lon="3.358634"><time>2026-05-02T19:05:24Z</time></trkpt>
<trkpt lat="50.535584" lon="3.359295"><time>2026-05-02T19:15:24Z</time></trkpt>
<trkpt lat="50.535939" lon="3.360261"><time>2026-05-02T19:25:24Z</time></trkpt>
<trkpt lat="50.535707" lon="3.360943"><time>2026-05-02T19:35:24Z</time></trkpt>
<trkpt lat="50.535617" lon="3.361574"><time>2026-05-02T19:45:24Z</time></trkpt>
</trkseg>
</trk>
<trk>
<name>hbtgg8</name>
<cmt>v</cmt>
<desc>Guignies Chemin n°8 </desc>
<link href="https://chemins.be/guignies/chemin/8"/><trkseg>
<trkpt lat="50.544411" lon="3.363823"><time>2026-05-02T19:05:24Z</time></trkpt>
<trkpt lat="50.545168" lon="3.361688"><time>2026-05-02T19:15:24Z</time></trkpt>
</trkseg>
</trk>
<trk>
<name>hbtggi1</name>
<cmt>v</cmt>
<desc>Guignies Chemin n°i1 </desc>
<link href="https://chemins.be/guignies/chemin/i1"/><trkseg>
<trkpt lat="50.533362" lon="3.358682"><time>2026-05-02T19:05:24Z</time></trkpt>
<trkpt lat="50.530554" lon="3.350950"><time>2026-05-02T19:15:24Z</time></trkpt>
</trkseg></trk>
<trk>
<name>hbtggi1</name>
<cmt>q</cmt>
<desc>Guignies Chemin n°i1 </desc>
<link href="https://chemins.be/guignies/chemin/i1"/><trkseg>
<trkpt lat="50.530554" lon="3.350950"><time>2026-05-02T19:15:24Z</time></trkpt>
<trkpt lat="50.530128" lon="3.349705"><time>2026-05-02T19:25:24Z</time></trkpt>
<trkpt lat="50.529877" lon="3.348941"><time>2026-05-02T19:35:24Z</time></trkpt>
</trkseg>
</trk>
<trk>
<name>hbtggi2</name>
<cmt>v</cmt>
<desc>Guignies Chemin n°i2 </desc>
<link href="https://chemins.be/guignies/chemin/i2"/><trkseg>
<trkpt lat="50.530947" lon="3.349800"><time>2026-05-02T19:05:24Z</time></trkpt>
<trkpt lat="50.530554" lon="3.350933"><time>2026-05-02T19:15:24Z</time></trkpt>
</trkseg>
</trk>
<trk>
<name>hbtggi3</name>
<cmt>q</cmt>
<desc>Guignies Sentier n°i3 </desc>
<link href="https://chemins.be/guignies/sentier/i3"/><trkseg>
<trkpt lat="50.545847" lon="3.366067"><time>2026-05-02T19:05:24Z</time></trkpt>
<trkpt lat="50.545370" lon="3.367116"><time>2026-05-02T19:15:24Z</time></trkpt>
</trkseg>
</trk>
<trk>
<name>hbtggp1</name>
<cmt>v</cmt>
<desc>Guignies Chemin particulier n°p1 </desc>
<link href="https://chemins.be/guignies/chemin/p1"/><trkseg>
<trkpt lat="50.533951" lon="3.360382"><time>2026-05-02T19:05:24Z</time></trkpt>
<trkpt lat="50.533391" lon="3.358696"><time>2026-05-02T19:15:24Z</time></trkpt>
</trkseg>
</trk>
</gpx>